Terminal Aerodrome Forecast
Issued by NWS El Paso, TX

Home | Current Version | Previous Version | Text Only | Print | Product List | Glossary On
Versions: 1 2 3 4 5 6 7 8 9 10
089
FTUS44 KEPZ 242330
TAFELP
TAF
KELP 242330Z 2500/2524 27023G37KT P6SM FEW250
     FM250700 25024G30KT P6SM FEW150 SCT250
     FM251600 25035G45KT P6SM BKN250=

USA.gov is the U.S. government's official web portal to all federal, state and local government web resources and services.